createdAt,value
2022-09-03T00:00:01.256Z,100437.38
2022-09-03T00:02:35.259Z,100413.25
2022-09-03T00:05:06.806Z,100427.91
2022-09-03T00:07:42.460Z,100428.09
2022-09-03T00:10:18.051Z,100430.75
2022-09-03T00:12:47.461Z,100426.56
2022-09-03T00:15:17.381Z,100425.22
2022-09-03T00:17:50.267Z,100423.84
2022-09-03T00:20:20.050Z,100427.63
2022-09-03T00:22:49.928Z,100419.91
2022-09-03T00:25:25.148Z,100413.59
2022-09-03T00:27:58.513Z,100436.19
2022-09-03T00:30:25.449Z,100434.13
2022-09-03T00:32:58.075Z,100424.50
2022-09-03T00:35:28.578Z,100425.81
2022-09-03T00:37:55.642Z,100432.22
2022-09-03T00:40:49.372Z,100422.75
2022-09-03T00:43:27.613Z,100422.59
2022-09-03T00:46:02.864Z,100425.56
2022-09-03T00:48:33.597Z,100415.13
2022-09-03T00:51:15.017Z,100392.63
2022-09-03T00:53:49.263Z,100414.28
2022-09-03T00:56:23.479Z,100388.63
2022-09-03T00:59:03.852Z,100403.31
2022-09-03T01:01:42.691Z,100413.06
2022-09-03T01:04:27.050Z,100415.72
2022-09-03T01:07:03.130Z,100414.75
2022-09-03T01:09:44.463Z,100418.75
2022-09-03T01:12:19.137Z,100414.97
2022-09-03T01:14:59.068Z,100405.00
2022-09-03T01:17:40.010Z,100425.25
2022-09-03T01:20:34.559Z,100417.16
2022-09-03T01:23:30.050Z,100419.69
2022-09-03T01:26:08.505Z,100422.31
2022-09-03T01:29:10.110Z,100403.84
2022-09-03T01:31:43.226Z,100420.50
2022-09-03T01:34:20.106Z,100420.06
2022-09-03T01:36:59.434Z,100416.56
2022-09-03T01:39:33.749Z,100416.84
2022-09-03T01:42:08.518Z,100424.97
2022-09-03T01:44:50.448Z,100418.22
2022-09-03T01:47:32.556Z,100412.09
2022-09-03T01:50:05.473Z,100419.25
2022-09-03T01:52:43.714Z,100420.28
2022-09-03T01:55:24.671Z,100414.16
2022-09-03T01:57:56.661Z,100412.75
2022-09-03T02:00:26.914Z,100411.25
2022-09-03T02:02:54.018Z,100416.69
2022-09-03T02:05:22.666Z,100419.47
2022-09-03T02:07:53.068Z,100421.75
2022-09-03T02:10:22.162Z,100416.31
2022-09-03T02:12:52.232Z,100405.63
2022-09-03T02:15:23.242Z,100407.81
2022-09-03T02:17:54.876Z,100412.44
2022-09-03T02:20:25.227Z,100417.88
2022-09-03T02:22:53.401Z,100407.44
2022-09-03T02:25:23.102Z,100413.13
2022-09-03T02:27:51.320Z,100407.28
2022-09-03T02:30:17.972Z,100399.25
2022-09-03T02:32:44.629Z,100416.34
2022-09-03T02:35:13.372Z,100407.06
2022-09-03T02:37:40.144Z,100407.88
2022-09-03T02:40:07.634Z,100411.66
2022-09-03T02:42:34.483Z,100405.38
2022-09-03T02:45:10.353Z,100415.31
2022-09-03T02:47:40.673Z,100407.63
2022-09-03T02:50:07.760Z,100408.75
2022-09-03T02:52:35.633Z,100416.56
2022-09-03T02:55:02.187Z,100404.19
2022-09-03T02:57:28.721Z,100410.59
2022-09-03T02:59:55.254Z,100418.66
2022-09-03T03:02:22.070Z,100411.84
2022-09-03T03:04:49.170Z,100406.84
2022-09-03T03:07:15.711Z,100407.53
2022-09-03T03:09:43.602Z,100402.09
2022-09-03T03:12:10.124Z,100403.63
2022-09-03T03:14:36.653Z,100380.66
2022-09-03T03:17:03.563Z,100395.97
2022-09-03T03:19:30.173Z,100383.31
2022-09-03T03:21:56.696Z,100393.63
2022-09-03T03:24:23.281Z,100385.97
2022-09-03T03:26:51.194Z,100397.50
2022-09-03T03:29:18.021Z,100389.88
2022-09-03T03:31:44.629Z,100377.13
2022-09-03T03:34:11.178Z,100388.50
2022-09-03T03:36:37.863Z,100375.31
2022-09-03T03:39:04.523Z,100390.16
2022-09-03T03:41:32.701Z,100382.78
2022-09-03T03:44:02.526Z,100359.91
2022-09-03T03:46:31.759Z,100390.47
2022-09-03T03:48:58.551Z,100393.78
2022-09-03T03:51:25.170Z,100387.00
2022-09-03T03:53:54.833Z,100387.81
2022-09-03T03:56:21.929Z,100384.22
2022-09-03T03:58:48.458Z,100390.06
2022-09-03T04:01:18.038Z,100382.28
2022-09-03T04:03:45.446Z,100392.88
2022-09-03T04:06:14.032Z,100375.31
2022-09-03T04:08:42.504Z,100380.16
2022-09-03T04:11:12.616Z,100381.13
2022-09-03T04:13:40.566Z,100383.78
2022-09-03T04:16:09.398Z,100385.47
2022-09-03T04:18:38.354Z,100385.63
2022-09-03T04:21:06.519Z,100390.34
2022-09-03T04:23:33.867Z,100389.06
2022-09-03T04:26:00.983Z,100385.13
2022-09-03T04:28:28.375Z,100385.50
2022-09-03T04:30:55.273Z,100375.78
2022-09-03T04:33:24.873Z,100386.88
2022-09-03T04:35:52.741Z,100394.34
2022-09-03T04:38:19.325Z,100394.59
2022-09-03T04:40:52.048Z,100384.69
2022-09-03T04:43:18.655Z,100384.25
2022-09-03T04:45:45.221Z,100383.81
2022-09-03T04:48:11.845Z,100381.69
2022-09-03T04:50:38.596Z,100379.97
2022-09-03T04:53:08.165Z,100382.16
2022-09-03T04:55:36.054Z,100382.00
2022-09-03T04:58:02.768Z,100383.00
2022-09-03T05:00:29.347Z,100387.97
2022-09-03T05:02:55.929Z,100372.88
2022-09-03T05:05:22.494Z,100379.88
2022-09-03T05:07:49.034Z,100380.56
2022-09-03T05:10:17.155Z,100389.41
2022-09-03T05:12:43.804Z,100388.44
2022-09-03T05:15:10.754Z,100400.31
2022-09-03T05:17:37.844Z,100398.88
2022-09-03T05:20:05.772Z,100382.28
2022-09-03T05:22:32.308Z,100390.69
2022-09-03T05:24:58.828Z,100393.25
2022-09-03T05:27:26.751Z,100393.47
2022-09-03T05:29:53.274Z,100398.81
2022-09-03T05:32:19.810Z,100398.88
2022-09-03T05:34:46.432Z,100403.56
2022-09-03T05:37:13.046Z,100395.69
2022-09-03T05:39:39.858Z,100379.44
2022-09-03T05:42:06.724Z,100395.41
2022-09-03T05:44:34.608Z,100388.34
2022-09-03T05:47:01.154Z,100377.38
2022-09-03T05:49:27.882Z,100388.38
2022-09-03T05:51:56.423Z,100362.19
2022-09-03T05:54:24.765Z,100398.09
2022-09-03T05:56:51.465Z,100368.72
2022-09-03T05:59:18.227Z,100392.53
2022-09-03T06:01:50.397Z,100383.25
2022-09-03T06:04:18.979Z,100389.78
2022-09-03T06:06:47.669Z,100380.66
2022-09-03T06:09:16.171Z,100401.13
2022-09-03T06:11:42.889Z,100371.38
2022-09-03T06:14:12.103Z,100407.31
2022-09-03T06:16:40.323Z,100407.66
2022-09-03T06:19:09.907Z,100415.13
2022-09-03T06:21:37.306Z,100418.44
2022-09-03T06:24:04.184Z,100412.78
2022-09-03T06:26:30.836Z,100415.06
2022-09-03T06:28:57.959Z,100420.91
2022-09-03T06:31:24.970Z,100408.22
2022-09-03T06:33:51.933Z,100421.19
2022-09-03T06:36:21.146Z,100411.16
2022-09-03T06:38:48.213Z,100408.13
2022-09-03T06:41:16.562Z,100393.66
2022-09-03T06:43:43.156Z,100413.84
2022-09-03T06:46:11.728Z,100411.00
2022-09-03T06:48:39.535Z,100417.06
2022-09-03T06:51:08.565Z,100405.09
2022-09-03T06:53:38.444Z,100419.66
2022-09-03T06:56:07.822Z,100408.47
2022-09-03T06:58:35.987Z,100405.56
2022-09-03T07:01:05.936Z,100420.16
2022-09-03T07:03:32.971Z,100420.88
2022-09-03T07:06:03.902Z,100419.19
2022-09-03T07:08:30.706Z,100378.28
2022-09-03T07:10:58.828Z,100417.84
2022-09-03T07:13:25.410Z,100409.50
2022-09-03T07:15:59.910Z,100407.72
2022-09-03T07:18:26.616Z,100422.19
2022-09-03T07:20:58.217Z,100421.00
2022-09-03T07:23:24.951Z,100419.06
2022-09-03T07:25:53.910Z,100421.63
2022-09-03T07:28:22.078Z,100427.38
2022-09-03T07:30:48.663Z,100428.94
2022-09-03T07:33:15.253Z,100403.16
2022-09-03T07:35:41.818Z,100426.47
2022-09-03T07:38:08.457Z,100434.72
2022-09-03T07:40:35.044Z,100426.41
2022-09-03T07:43:01.719Z,100435.16
2022-09-03T07:45:29.682Z,100430.34
2022-09-03T07:47:56.351Z,100418.63
2022-09-03T07:50:22.858Z,100429.22
2022-09-03T07:52:49.773Z,100436.75
2022-09-03T07:55:16.542Z,100438.72
2022-09-03T07:57:43.141Z,100433.53
2022-09-03T08:00:10.692Z,100438.56
2022-09-03T08:02:43.002Z,100441.53
2022-09-03T08:05:12.209Z,100440.69
2022-09-03T08:07:41.935Z,100432.50
2022-09-03T08:10:09.262Z,100458.38
2022-09-03T08:12:35.808Z,100451.81
2022-09-03T08:15:02.867Z,100451.88
2022-09-03T08:17:29.390Z,100452.28
2022-09-03T08:19:57.654Z,100454.00
2022-09-03T08:22:27.326Z,100461.88
2022-09-03T08:24:54.010Z,100456.88
2022-09-03T08:27:20.767Z,100461.59
2022-09-03T08:29:47.337Z,100464.91
2022-09-03T08:32:14.309Z,100464.25
2022-09-03T08:34:41.074Z,100468.00
2022-09-03T08:37:09.011Z,100467.41
2022-09-03T08:39:35.726Z,100468.19
2022-09-03T08:42:36.066Z,100467.41
2022-09-03T08:45:09.425Z,100444.69
2022-09-03T08:47:44.067Z,100470.31
2022-09-03T08:50:16.961Z,100466.84
2022-09-03T08:52:47.694Z,100459.72
2022-09-03T08:55:21.692Z,100461.81
2022-09-03T08:57:52.880Z,100460.34
2022-09-03T09:00:19.786Z,100466.34
2022-09-03T09:02:59.810Z,100458.56
2022-09-03T09:05:40.147Z,100462.06
2022-09-03T09:08:17.671Z,100459.63
2022-09-03T09:10:48.098Z,100448.09
2022-09-03T09:13:24.118Z,100467.13
2022-09-03T09:15:59.543Z,100461.53
2022-09-03T09:18:39.582Z,100451.38
2022-09-03T09:21:10.796Z,100422.41
2022-09-03T09:23:43.235Z,100455.13
2022-09-03T09:26:13.323Z,100440.69
2022-09-03T09:28:39.912Z,100446.13
2022-09-03T09:31:10.061Z,100439.31
2022-09-03T09:33:37.385Z,100441.66
2022-09-03T09:36:06.880Z,100458.66
2022-09-03T09:38:35.678Z,100422.22
2022-09-03T09:41:15.498Z,100442.16
2022-09-03T09:43:43.535Z,100457.69
2022-09-03T09:46:14.293Z,100427.16
2022-09-03T09:48:49.015Z,100436.13
2022-09-03T09:51:23.433Z,100450.38
2022-09-03T09:54:01.984Z,100431.81
2022-09-03T09:56:30.417Z,100387.13
2022-09-03T09:59:05.749Z,100447.13
2022-09-03T10:01:32.764Z,100375.44
2022-09-03T10:04:11.532Z,100458.50
2022-09-03T10:06:45.345Z,100459.13
2022-09-03T10:09:15.799Z,100440.34
2022-09-03T10:11:48.295Z,100424.63
2022-09-03T10:14:23.001Z,100440.38
2022-09-03T10:16:56.258Z,100465.13
2022-09-03T10:19:43.780Z,100397.16
2022-09-03T10:22:17.311Z,100440.91
2022-09-03T10:24:55.334Z,100463.22
2022-09-03T10:27:23.514Z,100430.13
2022-09-03T10:29:52.710Z,100401.81
2022-09-03T10:32:48.320Z,100447.44
2022-09-03T10:35:23.668Z,100455.84
2022-09-03T10:38:00.370Z,100457.44
2022-09-03T10:40:34.999Z,100466.47
2022-09-03T10:43:38.444Z,100464.94
2022-09-03T10:46:11.909Z,100435.78
2022-09-03T10:48:50.272Z,100434.47
2022-09-03T10:51:19.967Z,100422.06
2022-09-03T10:54:02.094Z,100418.09
2022-09-03T10:56:35.568Z,100413.19
2022-09-03T10:59:19.784Z,100390.91
2022-09-03T11:02:01.232Z,100407.16
2022-09-03T11:04:37.785Z,100440.34
2022-09-03T11:07:08.873Z,100440.41
2022-09-03T11:09:38.666Z,100443.59
2022-09-03T11:12:09.932Z,100433.44
2022-09-03T11:14:40.386Z,100436.78
2022-09-03T11:17:11.904Z,100437.09
2022-09-03T11:19:47.846Z,100416.00
2022-09-03T11:22:15.359Z,100410.84
2022-09-03T11:24:54.221Z,100425.47
2022-09-03T11:27:32.669Z,100417.72
2022-09-03T11:30:05.269Z,100422.78
2022-09-03T11:32:43.582Z,100408.22
2022-09-03T11:35:15.619Z,100403.28
2022-09-03T11:37:53.191Z,100409.16
2022-09-03T11:40:20.083Z,100412.53
2022-09-03T11:42:46.887Z,100417.16
2022-09-03T11:45:22.854Z,100414.56
2022-09-03T11:47:50.583Z,100410.94
2022-09-03T11:50:21.783Z,100410.94
2022-09-03T11:52:50.518Z,100385.25
2022-09-03T11:55:37.571Z,100396.59
2022-09-03T11:58:16.841Z,100413.06
2022-09-03T12:00:44.849Z,100417.50
2022-09-03T12:03:14.355Z,100401.13
2022-09-03T12:05:51.607Z,100411.09
2022-09-03T12:09:00.793Z,100404.34
2022-09-03T12:11:41.020Z,100398.22
2022-09-03T12:14:19.023Z,100414.56
2022-09-03T12:17:13.471Z,100411.81
2022-09-03T12:19:45.616Z,100420.06
2022-09-03T12:22:16.237Z,100335.69
2022-09-03T12:24:43.261Z,100403.00
2022-09-03T12:27:13.233Z,100399.28
2022-09-03T12:29:51.858Z,100399.63
2022-09-03T12:32:19.793Z,100396.59
2022-09-03T12:34:49.073Z,100397.84
2022-09-03T12:38:04.543Z,100389.75
2022-09-03T12:40:17.190Z,100391.28
2022-09-03T12:42:43.849Z,100385.28
2022-09-03T12:45:10.954Z,100386.53
2022-09-03T12:47:40.770Z,100381.22
2022-09-03T12:50:09.251Z,100377.41
2022-09-03T12:52:39.953Z,100382.88
2022-09-03T12:55:13.579Z,100363.44
2022-09-03T12:57:43.727Z,100355.91
2022-09-03T13:00:15.015Z,100370.56
2022-09-03T13:02:50.958Z,100346.84
2022-09-03T13:05:21.869Z,100369.94
2022-09-03T13:07:52.593Z,100364.44
2022-09-03T13:10:26.724Z,100358.78
2022-09-03T13:12:58.850Z,100357.72
2022-09-03T13:15:26.138Z,100367.31
2022-09-03T13:18:08.379Z,100353.94
2022-09-03T13:20:44.018Z,100355.09
2022-09-03T13:23:26.915Z,100362.56
2022-09-03T13:26:06.226Z,100363.53
2022-09-03T13:28:46.423Z,100352.91
2022-09-03T13:31:26.614Z,100351.09
2022-09-03T13:33:59.532Z,100357.22
2022-09-03T13:36:30.862Z,100351.09
2022-09-03T13:39:00.685Z,100364.94
2022-09-03T13:41:36.622Z,100352.91
2022-09-03T13:44:09.609Z,100357.28
2022-09-03T13:46:43.159Z,100341.78
2022-09-03T13:49:24.324Z,100352.28
2022-09-03T13:51:53.230Z,100352.13
2022-09-03T13:54:47.610Z,100346.97
2022-09-03T13:57:27.579Z,100351.06
2022-09-03T13:59:58.987Z,100333.66
2022-09-03T14:02:33.458Z,100338.28
2022-09-03T14:05:06.790Z,100341.44
2022-09-03T14:07:46.021Z,100341.56
2022-09-03T14:10:22.632Z,100329.03
2022-09-03T14:13:01.737Z,100271.81
2022-09-03T14:15:34.943Z,100331.56
2022-09-03T14:18:12.278Z,100344.16
2022-09-03T14:20:46.130Z,100342.50
2022-09-03T14:23:27.695Z,100334.72
2022-09-03T14:25:55.021Z,100341.34
2022-09-03T14:28:30.797Z,100335.09
2022-09-03T14:31:07.770Z,100336.34
2022-09-03T14:33:43.927Z,100314.09
2022-09-03T14:36:21.164Z,100352.66
2022-09-03T14:39:08.850Z,100335.31
2022-09-03T14:41:54.719Z,100341.81
2022-09-03T14:44:37.617Z,100338.16
2022-09-03T14:47:23.149Z,100339.97
2022-09-03T14:50:03.812Z,100326.16
2022-09-03T14:52:53.279Z,100331.44
2022-09-03T14:55:31.146Z,100334.31
2022-09-03T14:58:27.755Z,100358.25
2022-09-03T15:01:00.959Z,100345.69
2022-09-03T15:03:57.818Z,100353.75
2022-09-03T15:06:37.243Z,100343.84
2022-09-03T15:09:32.265Z,100344.13
2022-09-03T15:12:08.773Z,100345.59
2022-09-03T15:14:42.330Z,100350.09
2022-09-03T15:17:28.568Z,100349.13
2022-09-03T15:20:09.326Z,100351.56
2022-09-03T15:22:46.760Z,100356.78
2022-09-03T15:25:26.827Z,100358.19
2022-09-03T15:28:09.337Z,100365.94
2022-09-03T15:30:45.367Z,100372.44
2022-09-03T15:33:23.057Z,100365.25
2022-09-03T15:36:11.681Z,100367.94
2022-09-03T15:38:45.444Z,100353.59
2022-09-03T15:41:29.701Z,100367.38
2022-09-03T15:44:01.433Z,100367.53
2022-09-03T15:46:37.750Z,100368.59
2022-09-03T15:49:16.799Z,100367.34
2022-09-03T15:51:53.983Z,100377.16
2022-09-03T15:54:30.650Z,100377.34
2022-09-03T15:57:05.548Z,100371.66
2022-09-03T15:59:39.925Z,100384.94
2022-09-03T16:02:12.387Z,100384.34
2022-09-03T16:05:01.550Z,100380.00
2022-09-03T16:07:41.592Z,100380.34
2022-09-03T16:10:28.236Z,100384.59
2022-09-03T16:13:06.146Z,100387.88
2022-09-03T16:15:38.175Z,100394.22
2022-09-03T16:18:09.353Z,100411.19
2022-09-03T16:20:41.323Z,100431.25
2022-09-03T16:23:12.833Z,100432.66
2022-09-03T16:25:48.519Z,100439.72
2022-09-03T16:28:24.642Z,100457.72
2022-09-03T16:31:04.971Z,100443.66
2022-09-03T16:33:41.021Z,100436.84
2022-09-03T16:36:25.067Z,100454.03
2022-09-03T16:39:00.635Z,100461.38
2022-09-03T16:41:33.602Z,100461.34
2022-09-03T16:44:11.730Z,100460.59
2022-09-03T16:46:44.126Z,100458.16
2022-09-03T16:49:38.369Z,100473.94
2022-09-03T16:52:16.266Z,100457.91
2022-09-03T16:55:06.869Z,100468.31
2022-09-03T16:57:45.606Z,100465.22
2022-09-03T17:00:15.116Z,100473.50
2022-09-03T17:03:04.237Z,100467.94
2022-09-03T17:06:08.101Z,100485.50
2022-09-03T17:08:45.923Z,100467.56
2022-09-03T17:11:26.227Z,100485.75
2022-09-03T17:14:06.988Z,100478.53
2022-09-03T17:16:50.998Z,100485.38
2022-09-03T17:19:29.390Z,100486.16
2022-09-03T17:22:16.018Z,100493.84
2022-09-03T17:24:44.723Z,100482.09
2022-09-03T17:27:26.792Z,100492.81
2022-09-03T17:30:07.852Z,100498.19
2022-09-03T17:32:51.250Z,100416.19
2022-09-03T17:35:37.320Z,100485.81
2022-09-03T17:38:17.899Z,100488.91
2022-09-03T17:40:57.035Z,100492.38
2022-09-03T17:43:38.649Z,100490.09
2022-09-03T17:46:18.900Z,100484.09
2022-09-03T17:48:50.977Z,100501.03
2022-09-03T17:51:29.810Z,100501.84
2022-09-03T17:54:05.449Z,100451.59
2022-09-03T17:56:42.433Z,100500.16
2022-09-03T17:59:16.667Z,100508.84
2022-09-03T18:01:50.836Z,100466.69
2022-09-03T18:04:34.128Z,100515.44
2022-09-03T18:07:10.875Z,100449.03
2022-09-03T18:09:42.635Z,100480.94
2022-09-03T18:12:14.423Z,100488.53
2022-09-03T18:14:48.978Z,100477.59
2022-09-03T18:17:25.194Z,100480.47
2022-09-03T18:20:00.841Z,100486.06
2022-09-03T18:22:37.648Z,100505.25
2022-09-03T18:25:07.655Z,100487.41
2022-09-03T18:27:39.370Z,100518.22
2022-09-03T18:30:08.582Z,100497.50
2022-09-03T18:32:35.140Z,100519.00
2022-09-03T18:35:06.804Z,100468.69
2022-09-03T18:37:33.417Z,100506.09
2022-09-03T18:40:00.038Z,100524.66
2022-09-03T18:42:35.616Z,100526.53
2022-09-03T18:45:24.341Z,100524.06
2022-09-03T18:48:05.945Z,100516.81
2022-09-03T18:50:44.879Z,100513.44
2022-09-03T18:53:18.279Z,100513.38
2022-09-03T18:55:57.176Z,100528.84
2022-09-03T18:58:31.851Z,100526.97
2022-09-03T19:01:07.908Z,100542.19
2022-09-03T19:03:52.507Z,100542.31
2022-09-03T19:06:34.610Z,100547.63
2022-09-03T19:09:09.693Z,100546.56
2022-09-03T19:11:55.539Z,100555.56
2022-09-03T19:14:31.215Z,100526.06
2022-09-03T19:17:06.722Z,100522.66
2022-09-03T19:19:44.049Z,100568.72
2022-09-03T19:22:15.822Z,100573.41
2022-09-03T19:24:42.534Z,100554.66
2022-09-03T19:27:49.984Z,100548.13
2022-09-03T19:30:10.421Z,100584.09
2022-09-03T19:32:46.476Z,100580.88
2022-09-03T19:35:17.549Z,100586.59
2022-09-03T19:37:59.282Z,100586.53
2022-09-03T19:40:48.549Z,100595.94
2022-09-03T19:43:25.255Z,100601.78
2022-09-03T19:46:04.534Z,100599.75
2022-09-03T19:48:44.437Z,100583.25
2022-09-03T19:51:16.006Z,100597.72
2022-09-03T19:53:44.613Z,100601.69
2022-09-03T19:56:17.922Z,100612.47
2022-09-03T19:58:49.364Z,100612.19
2022-09-03T20:01:17.700Z,100615.59
2022-09-03T20:03:44.311Z,100597.59
2022-09-03T20:06:12.570Z,100591.47
2022-09-03T20:08:39.107Z,100619.13
2022-09-03T20:11:12.150Z,100622.34
2022-09-03T20:13:39.729Z,100612.47
2022-09-03T20:16:14.591Z,100626.13
2022-09-03T20:18:52.114Z,100617.78
2022-09-03T20:21:25.167Z,100631.34
2022-09-03T20:24:00.168Z,100626.50
2022-09-03T20:26:38.427Z,100634.38
2022-09-03T20:29:23.080Z,100631.59
2022-09-03T20:31:59.971Z,100611.88
2022-09-03T20:34:36.173Z,100629.06
2022-09-03T20:37:15.255Z,100639.28
2022-09-03T20:39:52.934Z,100616.03
2022-09-03T20:42:44.855Z,100645.88
2022-09-03T20:45:18.008Z,100648.97
2022-09-03T20:48:02.286Z,100641.81
2022-09-03T20:50:39.536Z,100633.38
2022-09-03T20:53:18.087Z,100648.34
2022-09-03T20:55:49.807Z,100643.25
2022-09-03T20:58:26.789Z,100631.75
2022-09-03T21:01:01.954Z,100639.59
2022-09-03T21:03:33.978Z,100640.25
2022-09-03T21:06:15.926Z,100650.75
2022-09-03T21:09:00.726Z,100652.09
2022-09-03T21:11:37.416Z,100653.44
2022-09-03T21:14:18.843Z,100652.28
2022-09-03T21:16:56.726Z,100657.47
2022-09-03T21:19:38.351Z,100656.47
2022-09-03T21:22:14.052Z,100661.13
2022-09-03T21:24:49.126Z,100655.84
2022-09-03T21:27:19.865Z,100668.50
2022-09-03T21:29:57.104Z,100654.03
2022-09-03T21:32:33.293Z,100647.91
2022-09-03T21:35:06.233Z,100653.38
2022-09-03T21:37:35.578Z,100646.91
2022-09-03T21:40:07.983Z,100628.94
2022-09-03T21:42:38.786Z,100654.22
2022-09-03T21:45:14.107Z,100659.91
2022-09-03T21:47:48.114Z,100654.72
2022-09-03T21:50:18.634Z,100639.09
2022-09-03T21:52:52.470Z,100661.56
2022-09-03T21:55:22.762Z,100663.38
2022-09-03T21:58:04.401Z,100659.38
2022-09-03T22:00:32.225Z,100664.56
2022-09-03T22:02:59.378Z,100670.19
2022-09-03T22:05:32.976Z,100675.69
2022-09-03T22:08:09.729Z,100676.34
2022-09-03T22:10:45.456Z,100675.03
2022-09-03T22:13:20.430Z,100673.38
2022-09-03T22:15:50.349Z,100674.88
2022-09-03T22:18:21.576Z,100673.50
2022-09-03T22:20:48.378Z,100677.63
2022-09-03T22:23:20.355Z,100665.16
2022-09-03T22:25:52.521Z,100653.16
2022-09-03T22:28:26.891Z,100612.56
2022-09-03T22:31:01.395Z,100676.13
2022-09-03T22:33:35.665Z,100674.97
2022-09-03T22:36:11.633Z,100677.78
2022-09-03T22:38:58.817Z,100660.97
2022-09-03T22:41:51.007Z,100676.59
2022-09-03T22:44:33.114Z,100677.09
2022-09-03T22:47:14.873Z,100649.25
2022-09-03T22:49:50.701Z,100598.50
2022-09-03T22:52:32.210Z,100676.91
2022-09-03T22:55:14.170Z,100676.91
2022-09-03T22:57:51.160Z,100660.88
2022-09-03T23:00:18.318Z,100686.53
2022-09-03T23:02:50.155Z,100683.03
2022-09-03T23:05:30.022Z,100692.16
2022-09-03T23:08:02.735Z,100668.53
2022-09-03T23:10:33.372Z,100685.81
2022-09-03T23:13:07.762Z,100690.28
2022-09-03T23:15:38.650Z,100691.81
2022-09-03T23:18:11.894Z,100694.75
2022-09-03T23:20:44.664Z,100693.25
2022-09-03T23:23:17.782Z,100690.56
2022-09-03T23:25:49.449Z,100693.88
2022-09-03T23:28:24.069Z,100700.88
2022-09-03T23:30:51.019Z,100702.19
2022-09-03T23:33:18.907Z,100699.03
2022-09-03T23:35:52.997Z,100696.63
2022-09-03T23:38:26.972Z,100707.66
2022-09-03T23:40:57.203Z,100718.72
2022-09-03T23:43:54.106Z,100719.06
2022-09-03T23:46:26.906Z,100707.91
2022-09-03T23:49:17.098Z,100728.50
2022-09-03T23:52:00.838Z,100725.16
2022-09-03T23:54:37.580Z,100719.69
2022-09-03T23:57:11.928Z,100715.84
